sensor_id;sensor_type;location;lat;lon;timestamp;temperature;humidity
79489;SHT31;68949;53.176;18.088;2023-05-29T00:00:47;10.94;66.23
79489;SHT31;68949;53.176;18.088;2023-05-29T00:03:25;10.98;66.49
79489;SHT31;68949;53.176;18.088;2023-05-29T00:05:52;10.96;66.42
79489;SHT31;68949;53.176;18.088;2023-05-29T00:08:18;10.89;66.53
79489;SHT31;68949;53.176;18.088;2023-05-29T00:10:45;10.81;66.73
79489;SHT31;68949;53.176;18.088;2023-05-29T00:13:12;10.75;66.84
79489;SHT31;68949;53.176;18.088;2023-05-29T00:15:38;10.69;67.10
79489;SHT31;68949;53.176;18.088;2023-05-29T00:18:05;10.66;67.25
79489;SHT31;68949;53.176;18.088;2023-05-29T00:20:32;10.65;67.37
79489;SHT31;68949;53.176;18.088;2023-05-29T00:23:01;10.67;67.26
79489;SHT31;68949;53.176;18.088;2023-05-29T00:25:28;10.67;67.27
79489;SHT31;68949;53.176;18.088;2023-05-29T00:27:56;10.64;67.52
79489;SHT31;68949;53.176;18.088;2023-05-29T00:30:22;10.61;67.60
79489;SHT31;68949;53.176;18.088;2023-05-29T00:32:50;10.59;67.56
79489;SHT31;68949;53.176;18.088;2023-05-29T00:35:19;10.56;67.82
79489;SHT31;68949;53.176;18.088;2023-05-29T00:37:47;10.56;67.94
79489;SHT31;68949;53.176;18.088;2023-05-29T00:40:13;10.60;67.77
79489;SHT31;68949;53.176;18.088;2023-05-29T00:42:40;10.61;67.91
79489;SHT31;68949;53.176;18.088;2023-05-29T00:45:07;10.57;67.88
79489;SHT31;68949;53.176;18.088;2023-05-29T00:47:34;10.58;68.02
79489;SHT31;68949;53.176;18.088;2023-05-29T00:50:01;10.57;68.13
79489;SHT31;68949;53.176;18.088;2023-05-29T00:52:28;10.52;68.08
79489;SHT31;68949;53.176;18.088;2023-05-29T00:54:55;10.47;68.25
79489;SHT31;68949;53.176;18.088;2023-05-29T00:57:23;10.45;68.49
79489;SHT31;68949;53.176;18.088;2023-05-29T00:59:50;10.38;68.72
79489;SHT31;68949;53.176;18.088;2023-05-29T01:02:18;10.38;68.88
79489;SHT31;68949;53.176;18.088;2023-05-29T01:04:47;10.36;68.94
79489;SHT31;68949;53.176;18.088;2023-05-29T01:07:14;10.31;69.04
79489;SHT31;68949;53.176;18.088;2023-05-29T01:09:41;10.29;69.17
79489;SHT31;68949;53.176;18.088;2023-05-29T01:12:26;10.32;69.25
79489;SHT31;68949;53.176;18.088;2023-05-29T01:21:03;10.22;69.35
79489;SHT31;68949;53.176;18.088;2023-05-29T01:27:00;10.17;69.64
79489;SHT31;68949;53.176;18.088;2023-05-29T01:29:32;10.17;69.53
79489;SHT31;68949;53.176;18.088;2023-05-29T01:32:02;10.19;69.42
79489;SHT31;68949;53.176;18.088;2023-05-29T01:34:31;10.22;69.38
79489;SHT31;68949;53.176;18.088;2023-05-29T01:36:58;10.25;69.12
79489;SHT31;68949;53.176;18.088;2023-05-29T01:39:25;10.33;68.68
79489;SHT31;68949;53.176;18.088;2023-05-29T01:41:53;10.39;68.48
79489;SHT31;68949;53.176;18.088;2023-05-29T01:44:21;10.41;68.57
79489;SHT31;68949;53.176;18.088;2023-05-29T01:46:50;10.38;68.71
79489;SHT31;68949;53.176;18.088;2023-05-29T01:49:18;10.30;68.64
79489;SHT31;68949;53.176;18.088;2023-05-29T01:51:45;10.23;68.78
79489;SHT31;68949;53.176;18.088;2023-05-29T01:54:12;10.17;68.90
79489;SHT31;68949;53.176;18.088;2023-05-29T01:56:39;10.09;69.13
79489;SHT31;68949;53.176;18.088;2023-05-29T01:59:06;10.02;69.90
79489;SHT31;68949;53.176;18.088;2023-05-29T02:01:34;9.96;70.12
79489;SHT31;68949;53.176;18.088;2023-05-29T02:04:01;9.89;70.81
79489;SHT31;68949;53.176;18.088;2023-05-29T02:06:28;9.78;70.82
79489;SHT31;68949;53.176;18.088;2023-05-29T02:08:55;9.66;70.56
79489;SHT31;68949;53.176;18.088;2023-05-29T02:11:21;9.60;70.58
79489;SHT31;68949;53.176;18.088;2023-05-29T02:13:48;9.54;70.81
79489;SHT31;68949;53.176;18.088;2023-05-29T02:16:15;9.47;71.14
79489;SHT31;68949;53.176;18.088;2023-05-29T02:18:43;9.40;71.47
79489;SHT31;68949;53.176;18.088;2023-05-29T02:21:10;9.29;71.86
79489;SHT31;68949;53.176;18.088;2023-05-29T02:23:37;9.21;72.25
79489;SHT31;68949;53.176;18.088;2023-05-29T02:26:04;9.26;72.29
79489;SHT31;68949;53.176;18.088;2023-05-29T02:28:31;9.31;72.13
79489;SHT31;68949;53.176;18.088;2023-05-29T02:30:59;9.29;72.35
79489;SHT31;68949;53.176;18.088;2023-05-29T02:33:25;9.30;72.30
79489;SHT31;68949;53.176;18.088;2023-05-29T02:35:54;9.28;72.44
79489;SHT31;68949;53.176;18.088;2023-05-29T02:38:20;9.31;72.47
79489;SHT31;68949;53.176;18.088;2023-05-29T02:40:47;9.34;72.59
79489;SHT31;68949;53.176;18.088;2023-05-29T02:43:14;9.35;72.42
79489;SHT31;68949;53.176;18.088;2023-05-29T02:45:41;9.37;72.33
79489;SHT31;68949;53.176;18.088;2023-05-29T02:48:07;9.40;72.30
79489;SHT31;68949;53.176;18.088;2023-05-29T02:50:34;9.40;72.52
79489;SHT31;68949;53.176;18.088;2023-05-29T02:53:01;9.44;72.49
79489;SHT31;68949;53.176;18.088;2023-05-29T02:55:28;9.49;72.50
79489;SHT31;68949;53.176;18.088;2023-05-29T02:57:55;9.59;72.30
79489;SHT31;68949;53.176;18.088;2023-05-29T03:00:22;9.82;71.93
79489;SHT31;68949;53.176;18.088;2023-05-29T03:02:49;10.17;71.14
79489;SHT31;68949;53.176;18.088;2023-05-29T03:05:15;10.48;70.41
79489;SHT31;68949;53.176;18.088;2023-05-29T03:07:43;10.83;69.72
79489;SHT31;68949;53.176;18.088;2023-05-29T03:10:10;11.09;69.02
79489;SHT31;68949;53.176;18.088;2023-05-29T03:12:38;11.24;68.66
79489;SHT31;68949;53.176;18.088;2023-05-29T03:15:05;11.36;68.40
79489;SHT31;68949;53.176;18.088;2023-05-29T03:17:34;11.53;68.05
79489;SHT31;68949;53.176;18.088;2023-05-29T03:20:05;11.64;67.78
79489;SHT31;68949;53.176;18.088;2023-05-29T03:22:34;11.74;67.53
79489;SHT31;68949;53.176;18.088;2023-05-29T03:25:06;11.82;67.26
79489;SHT31;68949;53.176;18.088;2023-05-29T03:27:34;11.94;66.97
79489;SHT31;68949;53.176;18.088;2023-05-29T03:30:06;12.11;66.72
79489;SHT31;68949;53.176;18.088;2023-05-29T03:32:34;12.31;66.33
79489;SHT31;68949;53.176;18.088;2023-05-29T03:35:01;12.54;65.87
79489;SHT31;68949;53.176;18.088;2023-05-29T03:37:30;12.77;65.25
79489;SHT31;68949;53.176;18.088;2023-05-29T03:39:57;13.02;64.85
79489;SHT31;68949;53.176;18.088;2023-05-29T03:42:24;13.22;64.22
79489;SHT31;68949;53.176;18.088;2023-05-29T03:44:51;13.47;63.79
79489;SHT31;68949;53.176;18.088;2023-05-29T03:47:18;13.73;63.09
79489;SHT31;68949;53.176;18.088;2023-05-29T03:49:45;13.92;62.75
79489;SHT31;68949;53.176;18.088;2023-05-29T03:52:12;14.13;62.27
79489;SHT31;68949;53.176;18.088;2023-05-29T03:54:39;14.35;61.99
79489;SHT31;68949;53.176;18.088;2023-05-29T03:57:06;14.59;61.42
79489;SHT31;68949;53.176;18.088;2023-05-29T03:59:33;14.77;60.76
79489;SHT31;68949;53.176;18.088;2023-05-29T04:01:59;14.82;60.60
79489;SHT31;68949;53.176;18.088;2023-05-29T04:04:26;14.87;60.23
79489;SHT31;68949;53.176;18.088;2023-05-29T04:06:54;14.92;60.04
79489;SHT31;68949;53.176;18.088;2023-05-29T04:09:20;14.98;59.65
79489;SHT31;68949;53.176;18.088;2023-05-29T04:11:47;15.12;59.65
79489;SHT31;68949;53.176;18.088;2023-05-29T04:14:14;15.32;59.30
79489;SHT31;68949;53.176;18.088;2023-05-29T04:16:41;15.65;59.19
79489;SHT31;68949;53.176;18.088;2023-05-29T04:19:07;15.86;58.31
79489;SHT31;68949;53.176;18.088;2023-05-29T04:21:34;16.03;58.01
79489;SHT31;68949;53.176;18.088;2023-05-29T04:24:01;16.41;57.79
79489;SHT31;68949;53.176;18.088;2023-05-29T04:26:28;16.75;57.44
79489;SHT31;68949;53.176;18.088;2023-05-29T04:28:55;17.07;57.07
79489;SHT31;68949;53.176;18.088;2023-05-29T04:31:25;17.34;55.60
79489;SHT31;68949;53.176;18.088;2023-05-29T04:33:53;17.37;55.34
79489;SHT31;68949;53.176;18.088;2023-05-29T04:36:24;17.57;54.10
79489;SHT31;68949;53.176;18.088;2023-05-29T04:39:04;17.56;53.97
79489;SHT31;68949;53.176;18.088;2023-05-29T04:41:32;17.47;53.66
79489;SHT31;68949;53.176;18.088;2023-05-29T04:44:00;17.51;53.98
79489;SHT31;68949;53.176;18.088;2023-05-29T04:46:33;17.37;53.66
79489;SHT31;68949;53.176;18.088;2023-05-29T04:49:01;17.23;53.62
79489;SHT31;68949;53.176;18.088;2023-05-29T04:51:29;17.21;53.90
79489;SHT31;68949;53.176;18.088;2023-05-29T04:53:56;17.25;53.84
79489;SHT31;68949;53.176;18.088;2023-05-29T04:56:23;17.28;53.23
79489;SHT31;68949;53.176;18.088;2023-05-29T04:58:50;17.33;53.31
79489;SHT31;68949;53.176;18.088;2023-05-29T05:01:17;17.41;52.81
79489;SHT31;68949;53.176;18.088;2023-05-29T05:03:44;17.31;52.88
79489;SHT31;68949;53.176;18.088;2023-05-29T05:06:13;17.40;52.80
79489;SHT31;68949;53.176;18.088;2023-05-29T05:08:43;17.53;51.97
79489;SHT31;68949;53.176;18.088;2023-05-29T05:11:12;17.34;51.03
79489;SHT31;68949;53.176;18.088;2023-05-29T05:13:40;17.18;51.40
79489;SHT31;68949;53.176;18.088;2023-05-29T05:16:07;17.12;51.69
79489;SHT31;68949;53.176;18.088;2023-05-29T05:18:35;17.13;51.68
79489;SHT31;68949;53.176;18.088;2023-05-29T05:21:04;17.17;51.72
79489;SHT31;68949;53.176;18.088;2023-05-29T05:23:34;17.38;51.91
79489;SHT31;68949;53.176;18.088;2023-05-29T05:26:02;17.56;51.52
79489;SHT31;68949;53.176;18.088;2023-05-29T05:28:29;17.86;51.18
79489;SHT31;68949;53.176;18.088;2023-05-29T05:30:56;17.99;50.49
79489;SHT31;68949;53.176;18.088;2023-05-29T05:33:23;17.92;50.16
79489;SHT31;68949;53.176;18.088;2023-05-29T05:35:50;17.83;50.08
79489;SHT31;68949;53.176;18.088;2023-05-29T05:38:16;17.72;49.91
79489;SHT31;68949;53.176;18.088;2023-05-29T05:40:44;17.77;50.06
79489;SHT31;68949;53.176;18.088;2023-05-29T05:43:21;18.07;50.29
79489;SHT31;68949;53.176;18.088;2023-05-29T05:46:07;18.08;49.30
79489;SHT31;68949;53.176;18.088;2023-05-29T05:48:35;17.97;48.63
79489;SHT31;68949;53.176;18.088;2023-05-29T05:51:02;18.00;49.08
79489;SHT31;68949;53.176;18.088;2023-05-29T05:53:28;17.98;48.10
79489;SHT31;68949;53.176;18.088;2023-05-29T05:55:57;17.86;47.20
79489;SHT31;68949;53.176;18.088;2023-05-29T05:58:25;17.87;47.56
79489;SHT31;68949;53.176;18.088;2023-05-29T06:00:52;17.84;47.25
79489;SHT31;68949;53.176;18.088;2023-05-29T06:03:19;17.84;47.48
79489;SHT31;68949;53.176;18.088;2023-05-29T06:06:05;17.91;48.25
79489;SHT31;68949;53.176;18.088;2023-05-29T06:08:35;18.18;47.83
79489;SHT31;68949;53.176;18.088;2023-05-29T06:11:02;18.27;47.84
79489;SHT31;68949;53.176;18.088;2023-05-29T06:13:29;18.20;47.50
79489;SHT31;68949;53.176;18.088;2023-05-29T06:16:04;17.95;47.94
79489;SHT31;68949;53.176;18.088;2023-05-29T06:18:31;17.93;48.74
79489;SHT31;68949;53.176;18.088;2023-05-29T06:20:58;17.87;48.86
79489;SHT31;68949;53.176;18.088;2023-05-29T06:23:25;17.96;49.13
79489;SHT31;68949;53.176;18.088;2023-05-29T06:25:52;17.97;49.62
79489;SHT31;68949;53.176;18.088;2023-05-29T06:28:20;17.99;49.30
79489;SHT31;68949;53.176;18.088;2023-05-29T06:30:47;17.82;49.39
79489;SHT31;68949;53.176;18.088;2023-05-29T06:33:13;17.83;49.83
79489;SHT31;68949;53.176;18.088;2023-05-29T06:35:40;18.05;50.01
79489;SHT31;68949;53.176;18.088;2023-05-29T06:38:08;18.13;49.04
79489;SHT31;68949;53.176;18.088;2023-05-29T06:40:34;18.06;49.40
79489;SHT31;68949;53.176;18.088;2023-05-29T06:43:01;18.14;49.36
79489;SHT31;68949;53.176;18.088;2023-05-29T06:45:39;18.31;49.61
79489;SHT31;68949;53.176;18.088;2023-05-29T06:48:07;18.45;49.09
79489;SHT31;68949;53.176;18.088;2023-05-29T06:50:34;18.20;49.24
79489;SHT31;68949;53.176;18.088;2023-05-29T06:53:11;18.01;49.98
79489;SHT31;68949;53.176;18.088;2023-05-29T06:55:48;17.90;49.99
79489;SHT31;68949;53.176;18.088;2023-05-29T06:58:15;17.89;50.40
79489;SHT31;68949;53.176;18.088;2023-05-29T07:00:42;17.86;50.04
79489;SHT31;68949;53.176;18.088;2023-05-29T07:03:29;17.95;50.15
79489;SHT31;68949;53.176;18.088;2023-05-29T07:05:56;18.03;49.72
79489;SHT31;68949;53.176;18.088;2023-05-29T07:08:23;18.23;50.19
79489;SHT31;68949;53.176;18.088;2023-05-29T07:10:51;18.43;49.72
79489;SHT31;68949;53.176;18.088;2023-05-29T07:13:19;18.42;49.13
79489;SHT31;68949;53.176;18.088;2023-05-29T07:15:47;18.29;49.92
79489;SHT31;68949;53.176;18.088;2023-05-29T07:18:15;18.33;49.07
79489;SHT31;68949;53.176;18.088;2023-05-29T07:20:42;18.23;49.27
79489;SHT31;68949;53.176;18.088;2023-05-29T07:23:11;18.23;48.87
79489;SHT31;68949;53.176;18.088;2023-05-29T07:25:38;18.21;48.76
79489;SHT31;68949;53.176;18.088;2023-05-29T07:28:04;18.23;49.39
79489;SHT31;68949;53.176;18.088;2023-05-29T07:30:32;18.49;49.56
79489;SHT31;68949;53.176;18.088;2023-05-29T07:32:59;18.56;48.68
79489;SHT31;68949;53.176;18.088;2023-05-29T07:35:26;18.62;48.92
79489;SHT31;68949;53.176;18.088;2023-05-29T07:37:53;18.59;48.70
79489;SHT31;68949;53.176;18.088;2023-05-29T07:40:22;18.62;48.67
79489;SHT31;68949;53.176;18.088;2023-05-29T07:43:01;18.68;48.18
79489;SHT31;68949;53.176;18.088;2023-05-29T07:45:38;18.66;48.50
79489;SHT31;68949;53.176;18.088;2023-05-29T07:48:04;18.83;48.48
79489;SHT31;68949;53.176;18.088;2023-05-29T07:50:31;18.95;48.17
79489;SHT31;68949;53.176;18.088;2023-05-29T07:52:59;19.06;48.16
79489;SHT31;68949;53.176;18.088;2023-05-29T07:55:27;19.14;48.12
79489;SHT31;68949;53.176;18.088;2023-05-29T07:57:54;19.12;47.98
79489;SHT31;68949;53.176;18.088;2023-05-29T08:00:20;19.07;48.62
79489;SHT31;68949;53.176;18.088;2023-05-29T08:02:48;19.10;47.87
79489;SHT31;68949;53.176;18.088;2023-05-29T08:05:36;18.86;47.96
79489;SHT31;68949;53.176;18.088;2023-05-29T08:08:07;18.70;48.58
79489;SHT31;68949;53.176;18.088;2023-05-29T08:10:35;18.69;47.91
79489;SHT31;68949;53.176;18.088;2023-05-29T08:13:02;18.93;48.55
79489;SHT31;68949;53.176;18.088;2023-05-29T08:15:30;19.13;47.79
79489;SHT31;68949;53.176;18.088;2023-05-29T08:17:58;19.17;47.27
79489;SHT31;68949;53.176;18.088;2023-05-29T08:20:24;19.27;47.52
79489;SHT31;68949;53.176;18.088;2023-05-29T08:22:51;19.32;46.94
79489;SHT31;68949;53.176;18.088;2023-05-29T08:25:18;19.36;46.42
79489;SHT31;68949;53.176;18.088;2023-05-29T08:27:46;19.55;46.12
79489;SHT31;68949;53.176;18.088;2023-05-29T08:30:14;19.62;45.30
79489;SHT31;68949;53.176;18.088;2023-05-29T08:32:40;19.52;45.12
79489;SHT31;68949;53.176;18.088;2023-05-29T08:35:07;19.48;45.28
79489;SHT31;68949;53.176;18.088;2023-05-29T08:37:34;19.62;46.08
79489;SHT31;68949;53.176;18.088;2023-05-29T08:40:01;19.65;45.37
79489;SHT31;68949;53.176;18.088;2023-05-29T08:42:35;19.62;45.50
79489;SHT31;68949;53.176;18.088;2023-05-29T08:45:10;19.63;45.15
79489;SHT31;68949;53.176;18.088;2023-05-29T08:47:41;19.61;44.97
79489;SHT31;68949;53.176;18.088;2023-05-29T08:50:11;19.66;45.59
79489;SHT31;68949;53.176;18.088;2023-05-29T08:52:41;19.74;44.57
79489;SHT31;68949;53.176;18.088;2023-05-29T08:55:08;19.81;44.38
79489;SHT31;68949;53.176;18.088;2023-05-29T08:57:36;20.04;44.65
79489;SHT31;68949;53.176;18.088;2023-05-29T09:00:05;20.18;43.79
79489;SHT31;68949;53.176;18.088;2023-05-29T09:02:39;20.28;43.34
79489;SHT31;68949;53.176;18.088;2023-05-29T09:05:07;20.45;43.74
79489;SHT31;68949;53.176;18.088;2023-05-29T09:07:35;20.43;42.08
79489;SHT31;68949;53.176;18.088;2023-05-29T09:10:07;20.56;42.53
79489;SHT31;68949;53.176;18.088;2023-05-29T09:12:36;20.61;41.84
79489;SHT31;68949;53.176;18.088;2023-05-29T09:15:21;20.52;42.01
79489;SHT31;68949;53.176;18.088;2023-05-29T09:17:53;20.60;41.85
79489;SHT31;68949;53.176;18.088;2023-05-29T09:20:23;20.47;42.87
79489;SHT31;68949;53.176;18.088;2023-05-29T09:25:27;19.85;42.15
79489;SHT31;68949;53.176;18.088;2023-05-29T09:28:02;19.83;42.67
79489;SHT31;68949;53.176;18.088;2023-05-29T09:33:07;20.42;41.83
79489;SHT31;68949;53.176;18.088;2023-05-29T09:35:39;20.76;41.75
79489;SHT31;68949;53.176;18.088;2023-05-29T09:38:12;21.07;41.66
79489;SHT31;68949;53.176;18.088;2023-05-29T09:40:44;21.20;41.17
79489;SHT31;68949;53.176;18.088;2023-05-29T09:43:13;21.04;40.66
79489;SHT31;68949;53.176;18.088;2023-05-29T09:45:43;20.85;40.35
79489;SHT31;68949;53.176;18.088;2023-05-29T09:48:16;20.97;41.07
79489;SHT31;68949;53.176;18.088;2023-05-29T09:50:49;21.42;40.98
79489;SHT31;68949;53.176;18.088;2023-05-29T09:55:54;21.92;39.15
79489;SHT31;68949;53.176;18.088;2023-05-29T09:58:22;22.05;39.11
79489;SHT31;68949;53.176;18.088;2023-05-29T10:00:51;22.29;38.85
79489;SHT31;68949;53.176;18.088;2023-05-29T10:03:19;21.95;39.45
79489;SHT31;68949;53.176;18.088;2023-05-29T10:05:51;21.63;39.12
79489;SHT31;68949;53.176;18.088;2023-05-29T10:08:23;21.13;39.74
79489;SHT31;68949;53.176;18.088;2023-05-29T10:10:53;20.91;40.52
79489;SHT31;68949;53.176;18.088;2023-05-29T10:13:34;20.81;40.72
79489;SHT31;68949;53.176;18.088;2023-05-29T10:16:07;20.66;40.06
79489;SHT31;68949;53.176;18.088;2023-05-29T10:18:39;20.93;40.16
79489;SHT31;68949;53.176;18.088;2023-05-29T10:21:12;21.31;40.28
79489;SHT31;68949;53.176;18.088;2023-05-29T10:23:43;21.46;39.74
79489;SHT31;68949;53.176;18.088;2023-05-29T10:26:26;21.22;39.88
79489;SHT31;68949;53.176;18.088;2023-05-29T10:29:15;20.78;39.50
79489;SHT31;68949;53.176;18.088;2023-05-29T10:38:11;20.15;39.64
79489;SHT31;68949;53.176;18.088;2023-05-29T10:40:42;20.43;40.02
79489;SHT31;68949;53.176;18.088;2023-05-29T10:46:00;20.91;38.52
79489;SHT31;68949;53.176;18.088;2023-05-29T10:48:41;21.01;38.76
79489;SHT31;68949;53.176;18.088;2023-05-29T10:51:23;21.05;38.13
79489;SHT31;68949;53.176;18.088;2023-05-29T10:53:55;21.15;37.43
79489;SHT31;68949;53.176;18.088;2023-05-29T10:56:22;21.33;37.51
79489;SHT31;68949;53.176;18.088;2023-05-29T10:58:56;21.67;37.49
79489;SHT31;68949;53.176;18.088;2023-05-29T11:01:27;21.88;36.50
79489;SHT31;68949;53.176;18.088;2023-05-29T11:06:44;22.22;35.30
79489;SHT31;68949;53.176;18.088;2023-05-29T11:09:27;22.17;36.12
79489;SHT31;68949;53.176;18.088;2023-05-29T11:15:23;22.25;35.21
79489;SHT31;68949;53.176;18.088;2023-05-29T11:17:51;22.22;35.31
79489;SHT31;68949;53.176;18.088;2023-05-29T11:20:26;22.25;35.10
79489;SHT31;68949;53.176;18.088;2023-05-29T11:23:15;21.86;35.21
79489;SHT31;68949;53.176;18.088;2023-05-29T11:25:44;21.72;35.63
79489;SHT31;68949;53.176;18.088;2023-05-29T11:28:13;21.76;35.19
79489;SHT31;68949;53.176;18.088;2023-05-29T11:30:41;21.89;34.59
79489;SHT31;68949;53.176;18.088;2023-05-29T11:33:12;21.85;33.99
79489;SHT31;68949;53.176;18.088;2023-05-29T11:35:56;21.89;34.56
79489;SHT31;68949;53.176;18.088;2023-05-29T11:38:27;21.92;33.99
79489;SHT31;68949;53.176;18.088;2023-05-29T11:40:55;22.02;34.94
79489;SHT31;68949;53.176;18.088;2023-05-29T11:43:24;22.24;34.56
79489;SHT31;68949;53.176;18.088;2023-05-29T11:45:52;22.34;33.42
79489;SHT31;68949;53.176;18.088;2023-05-29T11:48:18;22.14;33.53
79489;SHT31;68949;53.176;18.088;2023-05-29T11:50:46;21.90;33.97
79489;SHT31;68949;53.176;18.088;2023-05-29T11:53:13;21.60;34.39
79489;SHT31;68949;53.176;18.088;2023-05-29T11:55:41;21.57;34.28
79489;SHT31;68949;53.176;18.088;2023-05-29T11:58:07;21.86;34.79
79489;SHT31;68949;53.176;18.088;2023-05-29T12:00:35;22.15;34.80
79489;SHT31;68949;53.176;18.088;2023-05-29T12:03:06;22.24;33.79
79489;SHT31;68949;53.176;18.088;2023-05-29T12:05:49;22.23;33.90
79489;SHT31;68949;53.176;18.088;2023-05-29T12:08:20;21.98;33.91
79489;SHT31;68949;53.176;18.088;2023-05-29T12:10:51;21.71;33.87
79489;SHT31;68949;53.176;18.088;2023-05-29T12:13:19;21.49;33.85
79489;SHT31;68949;53.176;18.088;2023-05-29T12:15:48;21.54;34.71
79489;SHT31;68949;53.176;18.088;2023-05-29T12:18:19;21.58;33.92
79489;SHT31;68949;53.176;18.088;2023-05-29T12:20:47;21.63;34.63
79489;SHT31;68949;53.176;18.088;2023-05-29T12:23:13;21.77;34.99
79489;SHT31;68949;53.176;18.088;2023-05-29T12:25:40;21.80;34.39
79489;SHT31;68949;53.176;18.088;2023-05-29T12:28:09;21.93;34.19
79489;SHT31;68949;53.176;18.088;2023-05-29T12:30:44;22.03;34.22
79489;SHT31;68949;53.176;18.088;2023-05-29T12:33:31;22.14;34.55
79489;SHT31;68949;53.176;18.088;2023-05-29T12:36:05;22.14;33.31
79489;SHT31;68949;53.176;18.088;2023-05-29T12:38:45;22.00;33.15
79489;SHT31;68949;53.176;18.088;2023-05-29T12:41:29;22.01;34.28
79489;SHT31;68949;53.176;18.088;2023-05-29T12:44:01;22.13;33.63
79489;SHT31;68949;53.176;18.088;2023-05-29T12:49:17;22.05;32.81
79489;SHT31;68949;53.176;18.088;2023-05-29T12:51:47;22.00;32.49
79489;SHT31;68949;53.176;18.088;2023-05-29T12:54:14;22.10;34.30
79489;SHT31;68949;53.176;18.088;2023-05-29T12:56:43;22.24;34.02
79489;SHT31;68949;53.176;18.088;2023-05-29T12:59:12;22.35;33.67
79489;SHT31;68949;53.176;18.088;2023-05-29T13:01:39;22.19;32.46
79489;SHT31;68949;53.176;18.088;2023-05-29T13:04:07;21.84;32.03
79489;SHT31;68949;53.176;18.088;2023-05-29T13:06:34;21.66;32.29
79489;SHT31;68949;53.176;18.088;2023-05-29T13:09:03;21.56;32.68
79489;SHT31;68949;53.176;18.088;2023-05-29T13:11:33;21.62;32.76
79489;SHT31;68949;53.176;18.088;2023-05-29T13:13:59;21.76;33.56
79489;SHT31;68949;53.176;18.088;2023-05-29T13:16:26;21.96;33.75
79489;SHT31;68949;53.176;18.088;2023-05-29T13:18:53;22.04;34.14
79489;SHT31;68949;53.176;18.088;2023-05-29T13:21:21;22.34;34.73
79489;SHT31;68949;53.176;18.088;2023-05-29T13:23:47;22.59;34.17
79489;SHT31;68949;53.176;18.088;2023-05-29T13:26:14;22.75;33.72
79489;SHT31;68949;53.176;18.088;2023-05-29T13:28:41;22.87;33.16
79489;SHT31;68949;53.176;18.088;2023-05-29T13:31:07;22.88;32.30
79489;SHT31;68949;53.176;18.088;2023-05-29T13:33:34;22.71;32.19
79489;SHT31;68949;53.176;18.088;2023-05-29T13:36:01;22.61;32.99
79489;SHT31;68949;53.176;18.088;2023-05-29T13:38:28;22.67;32.83
79489;SHT31;68949;53.176;18.088;2023-05-29T13:40:55;22.78;32.26
79489;SHT31;68949;53.176;18.088;2023-05-29T13:43:21;22.92;32.38
79489;SHT31;68949;53.176;18.088;2023-05-29T13:45:48;22.86;31.49
79489;SHT31;68949;53.176;18.088;2023-05-29T13:48:15;22.71;32.03
79489;SHT31;68949;53.176;18.088;2023-05-29T13:50:42;22.56;31.70
79489;SHT31;68949;53.176;18.088;2023-05-29T13:53:08;22.36;31.42
79489;SHT31;68949;53.176;18.088;2023-05-29T13:55:35;22.08;31.68
79489;SHT31;68949;53.176;18.088;2023-05-29T13:58:02;21.91;31.81
79489;SHT31;68949;53.176;18.088;2023-05-29T14:00:28;21.78;32.22
79489;SHT31;68949;53.176;18.088;2023-05-29T14:02:55;21.70;32.86
79489;SHT31;68949;53.176;18.088;2023-05-29T14:05:22;21.64;32.51
79489;SHT31;68949;53.176;18.088;2023-05-29T14:07:51;21.69;33.32
79489;SHT31;68949;53.176;18.088;2023-05-29T14:10:17;21.95;33.42
79489;SHT31;68949;53.176;18.088;2023-05-29T14:12:44;22.20;32.84
79489;SHT31;68949;53.176;18.088;2023-05-29T14:15:11;22.16;32.38
79489;SHT31;68949;53.176;18.088;2023-05-29T14:17:38;22.08;33.39
79489;SHT31;68949;53.176;18.088;2023-05-29T14:20:04;22.11;33.55
79489;SHT31;68949;53.176;18.088;2023-05-29T14:22:34;22.10;32.59
79489;SHT31;68949;53.176;18.088;2023-05-29T14:25:03;22.02;32.88
79489;SHT31;68949;53.176;18.088;2023-05-29T14:27:32;22.11;33.49
79489;SHT31;68949;53.176;18.088;2023-05-29T14:29:59;22.23;33.36
79489;SHT31;68949;53.176;18.088;2023-05-29T14:32:29;22.21;32.88
79489;SHT31;68949;53.176;18.088;2023-05-29T14:34:55;22.00;31.96
79489;SHT31;68949;53.176;18.088;2023-05-29T14:37:24;21.96;32.83
79489;SHT31;68949;53.176;18.088;2023-05-29T14:39:51;22.00;32.82
79489;SHT31;68949;53.176;18.088;2023-05-29T14:42:18;22.16;32.54
79489;SHT31;68949;53.176;18.088;2023-05-29T14:44:44;22.25;31.91
79489;SHT31;68949;53.176;18.088;2023-05-29T14:47:11;22.07;31.24
79489;SHT31;68949;53.176;18.088;2023-05-29T14:49:39;22.06;32.44
79489;SHT31;68949;53.176;18.088;2023-05-29T14:52:06;22.09;31.37
79489;SHT31;68949;53.176;18.088;2023-05-29T14:54:33;22.14;32.01
79489;SHT31;68949;53.176;18.088;2023-05-29T14:57:00;22.31;32.78
79489;SHT31;68949;53.176;18.088;2023-05-29T14:59:27;22.43;32.58
79489;SHT31;68949;53.176;18.088;2023-05-29T15:01:54;22.50;32.77
79489;SHT31;68949;53.176;18.088;2023-05-29T15:04:23;22.47;32.98
79489;SHT31;68949;53.176;18.088;2023-05-29T15:06:49;22.01;32.89
79489;SHT31;68949;53.176;18.088;2023-05-29T15:09:16;21.70;33.20
79489;SHT31;68949;53.176;18.088;2023-05-29T15:11:43;21.65;33.68
79489;SHT31;68949;53.176;18.088;2023-05-29T15:14:10;21.63;33.21
79489;SHT31;68949;53.176;18.088;2023-05-29T15:16:37;21.33;33.11
79489;SHT31;68949;53.176;18.088;2023-05-29T15:19:04;21.18;34.07
79489;SHT31;68949;53.176;18.088;2023-05-29T15:21:31;21.31;33.48
79489;SHT31;68949;53.176;18.088;2023-05-29T15:23:58;21.54;33.39
79489;SHT31;68949;53.176;18.088;2023-05-29T15:26:25;21.75;32.88
79489;SHT31;68949;53.176;18.088;2023-05-29T15:28:52;21.90;32.63
79489;SHT31;68949;53.176;18.088;2023-05-29T15:31:20;22.04;32.75
79489;SHT31;68949;53.176;18.088;2023-05-29T15:33:49;22.08;33.03
79489;SHT31;68949;53.176;18.088;2023-05-29T15:36:17;22.16;33.20
79489;SHT31;68949;53.176;18.088;2023-05-29T15:38:46;22.23;33.62
79489;SHT31;68949;53.176;18.088;2023-05-29T15:41:13;22.14;32.46
79489;SHT31;68949;53.176;18.088;2023-05-29T15:43:40;21.99;32.81
79489;SHT31;68949;53.176;18.088;2023-05-29T15:46:08;21.89;32.56
79489;SHT31;68949;53.176;18.088;2023-05-29T15:48:34;21.75;32.58
79489;SHT31;68949;53.176;18.088;2023-05-29T15:51:02;21.74;33.21
79489;SHT31;68949;53.176;18.088;2023-05-29T15:53:28;21.67;32.82
79489;SHT31;68949;53.176;18.088;2023-05-29T15:55:55;21.67;33.60
79489;SHT31;68949;53.176;18.088;2023-05-29T15:58:22;21.72;33.37
79489;SHT31;68949;53.176;18.088;2023-05-29T16:00:50;21.72;33.19
79489;SHT31;68949;53.176;18.088;2023-05-29T16:03:17;21.80;33.19